Portada
METAR-TAF:

METAR-TAF

Aeropuertos :

Aeropuerto de Sabadell

Sabadell, España

latitud: 41-31N, longitud: 002-06E, altitud: 250 m

Observación

El informe se hizo hace 29 minutos, a las 08:30 UTC
Viento calma
Temperatura 9°C
Humedad 81%
Presión 1029 hPa
Visibilidad: 9000 m

METAR: LELL 220830Z 00000KT 9000 NSC 09/06 Q1029

Hora: 09:59 (08:59 UTC)

Pronóstico

El informe se hizo hace 59 minutos, a las 08:00 UTC
Pronóstico válido del 22 a las 09 UTC al 23 a las 09 UTC
Viento 5 kt del suroeste
Visibilidad 10 km o más
Escasas nubes a una altura de 3000 ft

TAF: LELL 220800Z 2209/2309 22005KT 9999 FEW030 TX19/2213Z TN06/2209Z

Observaciones y pronósticos meteorológicos de más de 4000 aeropuertos (mensajes METAR y TAF).

Los puntos amarillos y rojos representan las estaciones disponibles.

Ponga el ratón en el punto deseado para ver el nombre de la estación.

Haga clic para ver las observaciones y los pronósticos meteorológicos.

Para cambiar el mapa : haga clic en los botones verdes con una cruz de color negro para hacer un zoom, en el botón verde con un guión para alejar o en las flechas verdes para mapas adyacentes.


METAR-TAF: